Time;durP1;ratioP1;P1;durP2;ratioP2;P2;SDS_P1;SDS_P2;PMS_P1;PMS_P2;Temp;Humidity;BMP_temperature;BMP_pressure;BME280_temperature;BME280_humidity;BME280_pressure;Samples;Min_cycle;Max_cycle;Signal;HPM_P1;HPM_P2
2022/06/15 00:01:05;;;;;;;2.63;1.52;;;16.50;58.90;;;;;;5081392;28;20063;-66
2022/06/15 00:03:34;;;;;;;3.38;1.50;;;16.50;59.00;;;;;;5076423;28;20032;-65
2022/06/15 00:06:04;;;;;;;2.47;1.73;;;16.50;59.00;;;;;;5087440;28;20455;-66
2022/06/15 00:08:30;;;;;;;2.58;1.77;;;16.40;59.10;;;;;;5080600;28;20138;-66
2022/06/15 00:10:55;;;;;;;2.30;1.60;;;16.40;59.10;;;;;;5079931;28;20107;-65
2022/06/15 00:13:21;;;;;;;3.20;1.50;;;16.40;59.10;;;;;;5080016;28;20020;-65
2022/06/15 00:15:48;;;;;;;2.50;1.60;;;16.30;59.20;;;;;;5082102;28;20099;-64
2022/06/15 00:18:13;;;;;;;2.97;1.70;;;16.30;59.30;;;;;;5076697;28;20849;-64
2022/06/15 00:20:39;;;;;;;2.47;1.63;;;16.30;59.60;;;;;;5089399;28;20092;-66
2022/06/15 00:23:05;;;;;;;3.13;1.75;;;16.20;59.60;;;;;;5083299;28;20042;-65
2022/06/15 00:25:30;;;;;;;1.98;1.67;;;16.20;59.70;;;;;;5089713;28;20086;-66
2022/06/15 00:27:56;;;;;;;2.92;1.80;;;16.20;59.70;;;;;;5094350;28;20470;-66
2022/06/15 00:30:21;;;;;;;2.55;1.60;;;16.20;59.70;;;;;;5084890;28;20040;-67
2022/06/15 00:32:48;;;;;;;2.65;1.65;;;16.20;59.80;;;;;;5092198;28;20450;-66
2022/06/15 00:35:15;;;;;;;2.15;1.75;;;16.10;59.80;;;;;;5098254;28;20486;-67
2022/06/15 00:37:41;;;;;;;2.53;1.65;;;16.10;59.90;;;;;;5079973;28;20024;-67
2022/06/15 00:40:07;;;;;;;2.88;2.00;;;16.10;59.90;;;;;;5080399;28;20034;-66
2022/06/15 00:42:35;;;;;;;3.17;1.80;;;16.10;60.20;;;;;;5079020;28;20031;-67
2022/06/15 00:45:02;;;;;;;4.22;1.80;;;16.00;60.30;;;;;;5086601;28;20122;-65
2022/06/15 00:47:31;;;;;;;3.15;1.90;;;16.00;60.40;;;;;;5086287;28;20055;-67
2022/06/15 00:50:01;;;;;;;2.05;1.80;;;15.90;60.60;;;;;;5088254;28;20016;-66
2022/06/15 00:52:56;;;;;;;4.03;2.00;;;15.90;60.70;;;;;;5086209;28;20575;-69
2022/06/15 00:55:25;;;;;;;4.47;1.70;;;15.90;60.90;;;;;;5066064;28;20051;-64
2022/06/15 00:57:51;;;;;;;2.83;1.80;;;15.80;60.80;;;;;;5081046;28;20111;-65
2022/06/15 01:00:18;;;;;;;2.60;1.90;;;15.80;61.00;;;;;;5084825;28;20498;-65
2022/06/15 01:02:43;;;;;;;3.97;1.83;;;15.80;61.10;;;;;;5094184;28;20067;-64
2022/06/15 01:05:30;;;;;;;2.83;1.90;;;15.70;61.10;;;;;;5088445;28;20444;-65
2022/06/15 01:08:26;;;;;;;3.05;1.77;;;15.70;61.20;;;;;;5079678;28;20645;-65
2022/06/15 01:11:17;;;;;;;2.97;1.92;;;15.70;61.40;;;;;;5094995;28;20111;-66
2022/06/15 01:14:13;;;;;;;2.30;1.57;;;15.70;61.40;;;;;;5081863;28;20050;-66
2022/06/15 01:16:54;;;;;;;2.88;1.85;;;15.60;61.40;;;;;;5085702;28;20055;-67
2022/06/15 01:19:51;;;;;;;3.20;1.80;;;15.60;61.40;;;;;;5094537;28;20024;-67
2022/06/15 01:22:44;;;;;;;3.83;1.70;;;15.60;61.40;;;;;;5079851;28;20047;-67
2022/06/15 01:25:18;;;;;;;2.33;1.80;;;15.60;61.30;;;;;;5079814;28;20081;-66
2022/06/15 01:27:46;;;;;;;3.97;1.90;;;15.60;61.40;;;;;;5080185;28;20040;-67
2022/06/15 01:30:35;;;;;;;3.30;2.10;;;15.60;61.40;;;;;;5090294;28;20378;-66
2022/06/15 01:33:06;;;;;;;3.08;1.90;;;15.60;61.50;;;;;;5085840;28;20086;-66
2022/06/15 01:35:50;;;;;;;3.23;1.73;;;15.60;61.50;;;;;;5076126;28;20037;-66
2022/06/15 01:38:35;;;;;;;3.03;1.80;;;15.60;61.50;;;;;;5084788;28;20031;-66
2022/06/15 01:41:31;;;;;;;3.60;2.00;;;15.60;61.60;;;;;;5085158;28;22046;-66
2022/06/15 01:44:00;;;;;;;2.30;1.77;;;15.60;61.70;;;;;;5092120;28;20028;-65
2022/06/15 01:46:26;;;;;;;4.32;1.90;;;15.50;61.60;;;;;;5095329;27;20054;-66
2022/06/15 01:48:55;;;;;;;2.88;1.73;;;15.50;61.70;;;;;;5082187;28;20055;-66
2022/06/15 01:51:26;;;;;;;3.10;1.83;;;15.50;61.70;;;;;;5091514;28;20024;-67
2022/06/15 01:54:27;;;;;;;3.03;1.80;;;15.50;61.80;;;;;;5080475;28;20521;-67
2022/06/15 01:56:53;;;;;;;2.72;1.70;;;15.50;61.80;;;;;;5078844;28;20038;-67
2022/06/15 01:59:43;;;;;;;3.03;1.80;;;15.50;62.00;;;;;;5076821;28;20030;-66
2022/06/15 02:02:33;;;;;;;2.53;1.67;;;15.40;61.90;;;;;;5081983;28;20522;-66
2022/06/15 02:05:32;;;;;;;3.40;2.50;;;15.40;61.90;;;;;;5088401;28;20454;-66
2022/06/15 02:08:08;;;;;;;3.90;1.60;;;15.40;62.00;;;;;;5074927;28;20039;-66
2022/06/15 02:10:43;;;;;;;6.10;1.80;;;15.40;62.00;;;;;;5087687;28;20394;-67
2022/06/15 02:13:35;;;;;;;1.65;1.45;;;15.40;62.10;;;;;;5088682;28;20103;-67
2022/06/15 02:16:11;;;;;;;3.28;1.67;;;15.40;62.00;;;;;;5066200;28;20037;-67
2022/06/15 02:18:39;;;;;;;4.32;1.65;;;15.40;62.00;;;;;;5087755;28;20036;-68
2022/06/15 02:21:11;;;;;;;4.55;2.30;;;15.40;62.00;;;;;;5102858;28;20099;-67
2022/06/15 02:23:40;;;;;;;2.77;1.60;;;15.30;62.20;;;;;;5077400;28;20113;-67
2022/06/15 02:26:06;;;;;;;2.85;1.73;;;15.30;62.30;;;;;;5089306;28;20278;-67
2022/06/15 02:28:37;;;;;;;3.60;1.88;;;15.30;62.30;;;;;;5080880;28;20055;-68
2022/06/15 02:31:03;;;;;;;2.65;1.77;;;15.30;62.30;;;;;;5086443;28;20066;-68
2022/06/15 02:33:30;;;;;;;3.47;1.77;;;15.30;62.20;;;;;;5079627;28;20032;-67
2022/06/15 02:35:57;;;;;;;2.88;1.73;;;15.30;62.20;;;;;;5083216;28;20050;-67
2022/06/15 02:38:25;;;;;;;3.72;1.63;;;15.30;62.20;;;;;;5090217;28;20063;-68
2022/06/15 02:40:51;;;;;;;3.22;1.90;;;15.30;62.10;;;;;;5081242;28;20509;-67
2022/06/15 02:43:22;;;;;;;4.53;2.20;;;15.30;62.30;;;;;;5085957;28;20032;-66
2022/06/15 02:45:49;;;;;;;3.95;2.00;;;15.20;62.30;;;;;;5093020;28;20082;-66
2022/06/15 02:48:16;;;;;;;3.65;2.15;;;15.20;62.30;;;;;;5079583;28;20060;-67
2022/06/15 02:51:34;;;;;;;3.28;1.83;;;15.20;62.70;;;;;;5086876;28;20031;-67
2022/06/15 02:54:08;;;;;;;3.70;2.08;;;15.10;63.50;;;;;;5053719;28;20036;-67
2022/06/15 02:56:34;;;;;;;2.53;1.90;;;15.00;63.40;;;;;;5086989;28;20024;-66
2022/06/15 02:59:01;;;;;;;4.68;2.00;;;14.90;63.40;;;;;;5088979;28;20386;-66
2022/06/15 03:01:27;;;;;;;5.28;2.33;;;14.90;63.50;;;;;;5087001;28;20464;-66
2022/06/15 03:03:53;;;;;;;5.07;2.40;;;14.90;64.00;;;;;;5079213;28;20027;-64
2022/06/15 03:06:20;;;;;;;2.80;1.98;;;14.80;64.40;;;;;;5087196;28;20414;-66
2022/06/15 03:08:46;;;;;;;6.07;1.98;;;14.80;64.20;;;;;;5086021;28;20941;-66
2022/06/15 03:11:12;;;;;;;3.05;1.80;;;14.80;64.10;;;;;;5081877;28;20040;-66
2022/06/15 03:13:38;;;;;;;2.70;1.90;;;14.80;64.00;;;;;;5079635;28;20043;-66
2022/06/15 03:16:04;;;;;;;3.28;1.90;;;14.80;63.90;;;;;;5088988;28;20229;-67
2022/06/15 03:18:31;;;;;;;2.78;1.70;;;14.80;63.80;;;;;;5088565;28;20025;-67
2022/06/15 03:20:58;;;;;;;4.28;2.10;;;14.80;63.80;;;;;;5082018;28;20070;-67
2022/06/15 03:23:24;;;;;;;3.05;1.90;;;14.80;63.90;;;;;;5075171;28;20023;-67
2022/06/15 03:25:57;;;;;;;2.78;1.70;;;14.80;63.90;;;;;;5077269;28;20029;-67
2022/06/15 03:28:23;;;;;;;2.25;1.70;;;14.80;63.80;;;;;;5097554;28;20024;-66
2022/06/15 03:30:50;;;;;;;5.20;2.15;;;14.80;64.00;;;;;;5080144;28;20406;-67
2022/06/15 03:33:15;;;;;;;2.75;2.00;;;14.80;64.30;;;;;;5082596;28;20025;-67
2022/06/15 03:35:41;;;;;;;2.25;1.65;;;14.80;64.20;;;;;;5076055;28;20027;-67
2022/06/15 03:38:08;;;;;;;2.53;1.60;;;14.80;64.00;;;;;;5089343;28;20030;-67
2022/06/15 03:40:35;;;;;;;3.05;1.90;;;14.80;63.80;;;;;;5083404;28;20032;-67
2022/06/15 03:43:01;;;;;;;4.07;1.90;;;14.80;64.10;;;;;;5083983;28;20214;-67
2022/06/15 03:45:27;;;;;;;4.85;2.20;;;14.80;64.10;;;;;;5088709;28;20492;-68
2022/06/15 03:47:55;;;;;;;2.50;1.70;;;14.80;64.10;;;;;;5081639;28;20023;-68
2022/06/15 03:50:24;;;;;;;3.10;1.80;;;14.90;64.10;;;;;;5085403;28;20039;-67
2022/06/15 03:52:50;;;;;;;3.13;1.63;;;14.80;64.10;;;;;;5091793;28;20024;-67
2022/06/15 03:55:17;;;;;;;2.33;1.60;;;14.80;64.70;;;;;;5079390;28;20402;-66
2022/06/15 03:57:43;;;;;;;3.88;1.60;;;14.90;64.00;;;;;;5085707;28;20039;-66
2022/06/15 04:00:11;;;;;;;3.38;1.80;;;14.90;64.00;;;;;;5081812;28;20097;-67
2022/06/15 04:02:37;;;;;;;3.90;1.80;;;14.90;63.90;;;;;;5083013;28;20020;-67
2022/06/15 04:05:02;;;;;;;3.03;1.88;;;14.90;63.90;;;;;;5088588;28;20098;-68
2022/06/15 04:10:15;;;;;;;3.30;1.75;;;15.00;63.90;;;;;;5077196;28;20106;-68
2022/06/15 04:12:45;;;;;;;3.13;1.80;;;15.00;63.80;;;;;;5083536;28;20027;-67
2022/06/15 04:15:11;;;;;;;3.05;2.20;;;15.00;63.70;;;;;;5084252;28;20620;-67
2022/06/15 04:17:38;;;;;;;3.35;1.65;;;15.00;63.60;;;;;;5085660;28;20111;-67
2022/06/15 04:22:49;;;;;;;3.15;1.90;;;15.10;63.80;;;;;;5083888;28;20552;-67
2022/06/15 04:25:15;;;;;;;3.55;2.00;;;15.10;63.80;;;;;;5073638;28;20020;-67
2022/06/15 04:27:41;;;;;;;3.22;1.77;;;15.00;64.00;;;;;;5088007;28;20363;-67
2022/06/15 04:30:07;;;;;;;4.20;1.98;;;15.00;64.10;;;;;;5087842;28;20017;-68
2022/06/15 04:32:33;;;;;;;2.72;1.63;;;15.00;64.30;;;;;;5080270;28;20059;-68
2022/06/15 04:34:58;;;;;;;2.83;1.70;;;15.10;64.10;;;;;;5079872;28;20056;-68
2022/06/15 04:37:24;;;;;;;3.53;1.90;;;15.10;64.10;;;;;;5090041;28;20031;-67
2022/06/15 04:39:49;;;;;;;3.28;1.55;;;15.20;64.10;;;;;;5079188;28;20032;-67
2022/06/15 04:42:15;;;;;;;3.20;1.73;;;15.20;63.80;;;;;;5089848;28;20679;-67
2022/06/15 04:44:40;;;;;;;5.80;2.17;;;15.30;63.80;;;;;;5087728;28;20089;-66
2022/06/15 04:47:06;;;;;;;4.85;2.35;;;15.30;64.20;;;;;;5093054;28;20024;-65
2022/06/15 04:49:32;;;;;;;3.03;2.08;;;15.30;64.60;;;;;;5078058;28;20024;-66
2022/06/15 04:51:57;;;;;;;2.78;1.80;;;15.50;64.40;;;;;;5082561;28;20016;-66
2022/06/15 04:54:23;;;;;;;3.53;1.60;;;16.00;63.30;;;;;;5095078;28;20077;-66
2022/06/15 04:56:48;;;;;;;2.08;1.45;;;16.60;61.70;;;;;;5082652;28;20024;-66
2022/06/15 04:59:15;;;;;;;5.72;2.30;;;17.20;60.30;;;;;;5081365;28;20107;-66
2022/06/15 05:01:41;;;;;;;3.72;1.90;;;17.60;59.30;;;;;;5077609;28;20020;-67
2022/06/15 05:04:06;;;;;;;3.95;2.20;;;17.90;58.60;;;;;;5087030;28;20024;-66
2022/06/15 05:06:38;;;;;;;3.95;2.25;;;18.10;58.00;;;;;;5085314;28;20024;-67
2022/06/15 05:09:05;;;;;;;4.00;1.60;;;18.30;57.50;;;;;;5080450;28;20051;-66
2022/06/15 05:11:31;;;;;;;5.65;2.35;;;18.60;57.10;;;;;;5078797;28;20020;-67
2022/06/15 05:13:56;;;;;;;4.13;1.83;;;19.00;56.70;;;;;;5091372;28;20017;-67
2022/06/15 05:16:23;;;;;;;5.28;2.20;;;19.20;56.10;;;;;;5094856;28;20028;-67
2022/06/15 05:18:48;;;;;;;2.95;1.73;;;19.50;55.50;;;;;;5085511;28;20092;-67
2022/06/15 05:21:14;;;;;;;3.42;1.77;;;19.80;55.00;;;;;;5085454;28;20786;-68
2022/06/15 05:23:39;;;;;;;3.00;1.65;;;20.20;54.40;;;;;;5086989;28;20031;-66
2022/06/15 05:26:06;;;;;;;2.70;1.60;;;20.40;53.90;;;;;;5079457;28;20115;-65
2022/06/15 05:28:31;;;;;;;4.00;2.00;;;20.50;53.60;;;;;;5084385;28;20031;-68
2022/06/15 05:31:11;;;;;;;3.58;1.88;;;20.80;53.40;;;;;;5081532;28;20032;-67
2022/06/15 05:33:40;;;;;;;5.07;1.77;;;20.70;53.10;;;;;;5083206;28;20478;-66
2022/06/15 05:36:08;;;;;;;1.92;1.40;;;20.40;53.20;;;;;;5085289;28;20025;-66
2022/06/15 05:38:35;;;;;;;4.35;1.95;;;20.60;53.70;;;;;;5082784;28;20544;-66
2022/06/15 05:41:01;;;;;;;4.80;1.67;;;20.40;53.70;;;;;;5099600;28;20028;-66
2022/06/15 05:43:26;;;;;;;3.60;1.60;;;20.40;54.00;;;;;;5076627;28;20032;-67
2022/06/15 05:45:52;;;;;;;3.85;1.80;;;20.50;54.10;;;;;;5084399;28;20028;-66
2022/06/15 05:48:17;;;;;;;2.53;1.50;;;20.50;54.00;;;;;;5084866;28;20024;-66
2022/06/15 05:50:43;;;;;;;2.63;1.60;;;20.40;54.30;;;;;;5095972;28;20024;-66
2022/06/15 05:53:09;;;;;;;2.95;1.50;;;20.40;54.30;;;;;;5092350;28;20030;-66
2022/06/15 05:55:34;;;;;;;5.00;2.67;;;20.50;54.30;;;;;;5092414;28;20526;-67
2022/06/15 05:58:00;;;;;;;4.07;1.77;;;20.30;53.90;;;;;;5090066;28;20036;-67
2022/06/15 06:00:25;;;;;;;3.22;1.58;;;20.30;54.30;;;;;;5085542;28;20024;-67
2022/06/15 06:02:52;;;;;;;3.22;1.80;;;20.20;54.60;;;;;;5085233;28;20036;-67
2022/06/15 06:05:18;;;;;;;3.70;1.92;;;20.20;54.50;;;;;;5076146;28;20394;-67
2022/06/15 06:07:43;;;;;;;4.35;1.73;;;20.00;54.20;;;;;;5082340;28;20032;-66
2022/06/15 06:10:10;;;;;;;3.88;1.70;;;20.00;54.60;;;;;;5083417;28;20032;-67
2022/06/15 06:12:36;;;;;;;3.30;1.75;;;20.20;54.80;;;;;;5084637;28;20024;-66
2022/06/15 06:15:02;;;;;;;2.90;1.27;;;20.40;54.60;;;;;;5086890;28;20028;-66
2022/06/15 06:17:27;;;;;;;2.90;1.48;;;20.50;54.10;;;;;;5092013;28;20539;-67
2022/06/15 06:19:53;;;;;;;2.67;1.50;;;20.80;53.90;;;;;;5081179;28;20046;-68
2022/06/15 06:22:18;;;;;;;2.70;1.23;;;21.00;53.50;;;;;;5098833;28;20119;-66
2022/06/15 06:24:44;;;;;;;3.20;1.63;;;21.20;53.10;;;;;;5087216;28;20093;-67
2022/06/15 06:27:15;;;;;;;3.85;1.73;;;21.20;52.50;;;;;;5082180;28;20066;-67
2022/06/15 06:29:41;;;;;;;4.30;1.57;;;21.00;52.30;;;;;;5078442;28;20027;-67
2022/06/15 06:32:09;;;;;;;2.53;1.50;;;21.20;52.50;;;;;;5093554;28;20423;-67
2022/06/15 06:34:34;;;;;;;2.05;1.27;;;21.40;52.50;;;;;;5082896;28;20051;-67
2022/06/15 06:37:02;;;;;;;3.67;1.40;;;21.60;52.40;;;;;;5080348;28;20063;-67
2022/06/15 06:39:29;;;;;;;3.22;1.35;;;21.70;51.80;;;;;;5074458;28;20073;-67
2022/06/15 06:41:57;;;;;;;3.10;1.20;;;21.90;51.20;;;;;;5095602;28;20022;-67
2022/06/15 06:44:23;;;;;;;2.88;1.30;;;21.90;50.80;;;;;;5085857;28;20032;-67
2022/06/15 06:46:50;;;;;;;6.32;1.80;;;22.00;50.50;;;;;;5079325;28;20047;-67
2022/06/15 06:49:17;;;;;;;3.03;1.25;;;22.00;49.50;;;;;;5081957;28;20085;-67
2022/06/15 06:51:44;;;;;;;4.68;1.17;;;22.10;49.90;;;;;;5085991;28;20025;-67
2022/06/15 06:54:12;;;;;;;3.53;1.30;;;22.20;49.70;;;;;;5081244;28;20024;-67
2022/06/15 06:56:38;;;;;;;4.15;1.33;;;22.30;49.40;;;;;;5102441;28;20687;-66
2022/06/15 06:59:06;;;;;;;2.90;1.52;;;22.50;49.20;;;;;;5080608;28;20062;-66
2022/06/15 07:01:32;;;;;;;2.88;1.20;;;22.60;48.30;;;;;;5078701;28;20029;-67
2022/06/15 07:03:58;;;;;;;2.80;1.58;;;22.50;48.20;;;;;;5091550;28;20023;-67
2022/06/15 07:06:23;;;;;;;4.55;1.95;;;22.50;47.60;;;;;;5086145;28;20157;-67
2022/06/15 07:08:50;;;;;;;3.28;1.40;;;22.40;47.40;;;;;;5080220;28;20383;-67
2022/06/15 07:11:17;;;;;;;3.00;1.35;;;22.30;48.00;;;;;;5090492;28;20024;-66
2022/06/15 07:13:43;;;;;;;2.97;1.30;;;22.40;47.90;;;;;;5075644;28;20024;-67
2022/06/15 07:16:13;;;;;;;4.10;1.42;;;22.50;47.50;;;;;;5083117;28;20476;-67
2022/06/15 07:18:38;;;;;;;3.47;1.25;;;22.60;47.10;;;;;;5082009;28;20363;-67
2022/06/15 07:21:12;;;;;;;3.30;1.50;;;22.70;47.00;;;;;;5080112;28;20034;-67
2022/06/15 07:23:38;;;;;;;4.68;1.75;;;22.70;46.20;;;;;;5107324;28;20036;-68
2022/06/15 07:26:05;;;;;;;3.03;1.50;;;22.60;45.50;;;;;;5090142;28;20113;-66
2022/06/15 07:28:32;;;;;;;2.28;1.20;;;22.40;46.40;;;;;;5078111;28;20846;-66
2022/06/15 07:31:00;;;;;;;3.88;1.45;;;22.60;46.60;;;;;;5077684;28;20032;-68
2022/06/15 07:33:26;;;;;;;5.70;1.50;;;22.60;46.50;;;;;;5083825;28;20085;-66
2022/06/15 07:35:51;;;;;;;3.97;1.30;;;22.70;46.20;;;;;;5079947;28;20711;-67
2022/06/15 07:38:19;;;;;;;2.85;1.20;;;22.80;46.30;;;;;;5085333;28;20075;-67
2022/06/15 07:40:46;;;;;;;3.08;1.13;;;23.00;46.10;;;;;;5079362;28;20024;-68
2022/06/15 07:43:11;;;;;;;3.78;1.50;;;23.20;45.20;;;;;;5079010;28;20067;-67
2022/06/15 07:45:37;;;;;;;2.72;1.20;;;22.90;44.80;;;;;;5079872;28;20052;-68
2022/06/15 07:50:47;;;;;;;5.65;1.40;;;22.80;45.30;;;;;;5076579;28;20123;-67
2022/06/15 07:53:14;;;;;;;3.28;1.55;;;23.00;45.00;;;;;;5076720;28;20099;-68
2022/06/15 07:55:43;;;;;;;5.20;1.75;;;23.10;43.90;;;;;;5085469;28;20028;-68
2022/06/15 07:58:09;;;;;;;4.13;1.52;;;22.90;44.30;;;;;;5079869;28;20020;-68
2022/06/15 08:00:36;;;;;;;3.50;1.50;;;23.00;44.80;;;;;;5079482;28;20035;-67
2022/06/15 08:03:03;;;;;;;4.50;1.70;;;23.10;44.30;;;;;;5077918;28;20063;-68
2022/06/15 08:05:35;;;;;;;3.08;1.40;;;22.90;43.90;;;;;;5075270;28;20025;-68
2022/06/15 08:08:02;;;;;;;4.95;2.00;;;23.10;44.50;;;;;;5079648;28;20035;-68
2022/06/15 08:10:28;;;;;;;3.20;1.38;;;23.20;43.70;;;;;;5081668;28;20055;-68
2022/06/15 08:12:54;;;;;;;2.30;1.23;;;23.00;44.10;;;;;;5088638;28;20047;-68
2022/06/15 08:15:21;;;;;;;3.92;1.20;;;23.10;44.50;;;;;;5082911;28;20077;-67
2022/06/15 08:17:59;;;;;;;2.97;1.40;;;23.30;44.60;;;;;;5095339;28;20027;-67
2022/06/15 08:20:35;;;;;;;2.70;1.20;;;23.40;44.40;;;;;;5087013;28;20054;-68
2022/06/15 08:23:07;;;;;;;3.22;1.52;;;23.50;44.10;;;;;;5082083;28;20028;-67
2022/06/15 08:25:37;;;;;;;6.40;1.40;;;23.60;43.80;;;;;;5083044;28;20436;-67
2022/06/15 08:28:04;;;;;;;2.90;1.20;;;23.70;43.60;;;;;;5087066;28;20524;-67
2022/06/15 08:30:30;;;;;;;3.58;1.75;;;23.80;43.50;;;;;;5073544;28;20036;-67
2022/06/15 08:32:55;;;;;;;3.17;1.60;;;23.80;43.30;;;;;;5070470;28;20086;-67
2022/06/15 08:35:21;;;;;;;2.65;1.35;;;23.90;43.30;;;;;;5082889;28;20108;-67
2022/06/15 08:37:47;;;;;;;3.78;1.50;;;24.00;43.30;;;;;;5074954;28;20052;-67
2022/06/15 08:40:14;;;;;;;2.35;1.50;;;24.00;43.10;;;;;;5082575;28;20096;-67
2022/06/15 08:42:52;;;;;;;3.85;1.33;;;24.20;43.20;;;;;;5072043;28;20039;-67
2022/06/15 08:45:29;;;;;;;2.67;1.30;;;24.20;42.90;;;;;;5095766;28;20027;-67
2022/06/15 08:48:33;;;;;;;4.05;1.80;;;24.30;42.40;;;;;;5094104;28;20043;-67
2022/06/15 08:51:09;;;;;;;4.43;1.60;;;24.30;42.80;;;;;;5079950;28;20035;-67
2022/06/15 08:53:45;;;;;;;2.83;1.60;;;24.40;42.90;;;;;;5088114;28;20024;-68
2022/06/15 08:56:17;;;;;;;3.33;1.60;;;24.30;42.70;;;;;;5090245;28;20040;-66
2022/06/15 08:59:07;;;;;;;4.95;2.03;;;24.10;42.20;;;;;;5088712;28;20143;-68
2022/06/15 09:01:45;;;;;;;2.83;1.33;;;23.80;41.90;;;;;;5090414;28;20032;-68
2022/06/15 09:04:24;;;;;;;3.42;1.65;;;23.90;42.60;;;;;;5085095;28;20086;-68
2022/06/15 09:07:24;;;;;;;4.85;1.70;;;24.00;42.60;;;;;;5097575;28;20035;-67
2022/06/15 09:10:17;;;;;;;5.35;2.08;;;23.80;42.00;;;;;;5079141;28;20032;-68
2022/06/15 09:13:01;;;;;;;5.32;2.08;;;23.80;42.00;;;;;;5080129;28;20027;-67
2022/06/15 09:15:39;;;;;;;3.95;2.17;;;23.60;41.60;;;;;;5094517;28;20059;-67
2022/06/15 09:18:26;;;;;;;3.85;1.42;;;23.50;41.90;;;;;;5094987;28;20034;-66
2022/06/15 09:21:04;;;;;;;3.22;1.50;;;23.80;42.30;;;;;;5089933;28;20486;-68
2022/06/15 09:23:39;;;;;;;2.83;1.42;;;24.00;41.90;;;;;;5083563;28;20507;-67
2022/06/15 09:26:28;;;;;;;4.50;1.70;;;24.20;42.00;;;;;;5103046;28;20024;-67
2022/06/15 09:29:18;;;;;;;3.72;1.48;;;24.30;41.40;;;;;;5088046;28;20031;-67
2022/06/15 09:31:59;;;;;;;5.45;1.55;;;24.50;42.00;;;;;;5096042;28;20537;-67
2022/06/15 09:34:33;;;;;;;5.38;2.08;;;24.50;41.40;;;;;;5100955;28;20016;-67
2022/06/15 09:36:59;;;;;;;4.38;1.80;;;24.50;40.80;;;;;;5090798;28;20025;-66
2022/06/15 09:39:27;;;;;;;3.75;1.60;;;24.20;41.30;;;;;;5098831;28;20020;-67
2022/06/15 09:42:04;;;;;;;2.97;1.27;;;24.30;41.90;;;;;;5084663;28;20039;-67
2022/06/15 09:44:51;;;;;;;4.35;1.63;;;24.60;41.80;;;;;;5073391;28;20072;-67
2022/06/15 09:47:50;;;;;;;2.83;1.30;;;24.60;41.30;;;;;;5075257;28;21851;-67
2022/06/15 09:50:47;;;;;;;3.70;1.73;;;24.70;41.30;;;;;;5089389;28;20407;-67
2022/06/15 09:53:52;;;;;;;4.45;1.48;;;24.50;40.60;;;;;;5078214;28;20115;-67
2022/06/15 09:56:20;;;;;;;3.25;1.50;;;24.40;40.80;;;;;;5069262;28;20503;-67
2022/06/15 09:59:06;;;;;;;2.25;1.38;;;24.60;41.10;;;;;;5076581;28;20056;-67
2022/06/15 10:01:39;;;;;;;5.05;3.35;;;24.80;40.30;;;;;;5080377;28;20020;-66
2022/06/15 10:04:06;;;;;;;5.45;1.85;;;24.70;40.00;;;;;;5089646;28;20020;-67
2022/06/15 10:06:37;;;;;;;4.50;1.50;;;24.80;39.90;;;;;;5084658;28;20067;-67
2022/06/15 10:09:07;;;;;;;5.70;1.60;;;24.60;39.40;;;;;;5077914;28;20047;-67
2022/06/15 10:11:40;;;;;;;2.95;1.38;;;24.60;39.60;;;;;;5078437;28;20024;-66
2022/06/15 10:14:21;;;;;;;2.78;1.25;;;24.60;40.00;;;;;;5081540;28;20038;-67
2022/06/15 10:17:03;;;;;;;4.75;1.60;;;24.70;40.60;;;;;;5080031;28;20068;-66
2022/06/15 10:19:32;;;;;;;3.00;1.23;;;24.90;39.10;;;;;;5099001;27;20545;-66
2022/06/15 10:22:09;;;;;;;3.88;1.55;;;25.00;39.00;;;;;;5076700;28;20024;-66
2022/06/15 10:24:38;;;;;;;3.20;1.50;;;24.80;38.80;;;;;;5079074;28;20028;-66
2022/06/15 10:27:16;;;;;;;1.85;1.40;;;24.50;39.50;;;;;;5086663;28;20031;-67
2022/06/15 10:29:44;;;;;;;3.30;1.60;;;24.70;39.50;;;;;;5086346;28;20034;-67
2022/06/15 10:32:10;;;;;;;6.80;1.50;;;24.80;39.60;;;;;;5093773;28;20036;-68
2022/06/15 10:34:41;;;;;;;6.60;2.05;;;25.00;39.30;;;;;;5085178;28;20017;-67
2022/06/15 10:37:17;;;;;;;3.08;1.40;;;25.00;38.60;;;;;;5084010;28;20063;-67
2022/06/15 10:39:48;;;;;;;3.97;1.67;;;24.90;37.80;;;;;;5083213;28;20027;-67
2022/06/15 10:42:24;;;;;;;3.10;1.40;;;24.70;38.40;;;;;;5090518;28;20036;-67
2022/06/15 10:45:03;;;;;;;1.55;1.10;;;24.80;38.90;;;;;;5087651;28;20390;-67
2022/06/15 10:47:55;;;;;;;2.80;1.30;;;25.00;39.10;;;;;;5087346;28;20028;-67
2022/06/15 10:50:26;;;;;;;2.97;1.70;;;25.20;39.10;;;;;;5092403;28;20015;-67
2022/06/15 10:52:56;;;;;;;7.72;1.98;;;25.20;38.30;;;;;;5097948;28;20107;-67
2022/06/15 11:04:23;;;;;;;1.38;1.10;;;25.60;39.10;;;;;;5095846;28;20074;-66
2022/06/15 11:07:09;;;;;;;2.85;1.48;;;25.80;38.80;;;;;;5094321;28;20016;-66
2022/06/15 11:09:41;;;;;;;4.00;1.88;;;25.70;38.00;;;;;;5095525;28;20028;-66
2022/06/15 11:12:24;;;;;;;3.85;1.73;;;25.40;37.50;;;;;;5106278;28;20466;-66
2022/06/15 11:15:05;;;;;;;4.13;1.63;;;25.30;37.80;;;;;;5094892;28;20016;-67
2022/06/15 11:20:23;;;;;;;2.42;1.30;;;25.00;38.40;;;;;;5089298;28;20035;-67
2022/06/15 11:22:52;;;;;;;2.80;1.48;;;25.30;38.70;;;;;;5090174;28;20101;-67
2022/06/15 11:25:24;;;;;;;3.17;1.50;;;25.50;38.10;;;;;;5080784;28;20031;-67
2022/06/15 11:28:00;;;;;;;4.38;1.50;;;25.60;37.80;;;;;;5089154;28;20034;-67
2022/06/15 11:30:38;;;;;;;3.42;1.40;;;25.80;37.80;;;;;;5090080;28;20096;-67
2022/06/15 11:33:31;;;;;;;5.03;1.90;;;26.10;37.30;;;;;;5082051;28;20036;-67
2022/06/15 11:36:11;;;;;;;3.42;1.27;;;25.80;36.30;;;;;;5079236;28;20023;-67
2022/06/15 11:38:59;;;;;;;2.95;1.55;;;25.80;37.00;;;;;;5085113;28;20111;-67
2022/06/15 11:41:32;;;;;;;3.83;1.40;;;25.90;36.90;;;;;;5081671;28;20089;-67
2022/06/15 11:44:00;;;;;;;2.60;1.25;;;25.80;36.50;;;;;;5081899;28;20032;-67
2022/06/15 11:46:38;;;;;;;2.95;1.60;;;25.80;36.90;;;;;;5086629;28;20020;-67
2022/06/15 11:49:18;;;;;;;2.90;1.48;;;25.60;36.10;;;;;;5084011;28;20103;-67
2022/06/15 11:51:53;;;;;;;3.45;1.38;;;25.80;36.10;;;;;;5088765;28;20075;-66
2022/06/15 11:54:56;;;;;;;3.22;1.40;;;25.80;36.20;;;;;;5087688;28;20031;-67
2022/06/15 11:57:21;;;;;;;2.20;0.90;;;26.00;36.00;;;;;;5092650;28;20040;-66
2022/06/15 12:00:12;;;;;;;3.13;1.23;;;26.50;36.20;;;;;;5090069;28;20551;-66
2022/06/15 12:02:48;;;;;;;4.35;1.70;;;26.80;36.10;;;;;;5079794;28;20020;-65
2022/06/15 12:05:38;;;;;;;3.05;1.15;;;26.80;34.80;;;;;;5085875;28;20040;-66
2022/06/15 12:08:30;;;;;;;1.67;1.20;;;26.90;35.50;;;;;;5082500;28;20210;-66
2022/06/15 12:12:37;;;;;;;1.85;1.00;;;27.10;35.20;;;;;;5091687;28;20116;-66
2022/06/15 12:14:07;;;;;;;1.75;1.00;;;27.30;35.00;;;;;;5100841;28;20036;-67
2022/06/15 12:16:54;;;;;;;1.90;1.00;;;27.60;34.50;;;;;;5098411;28;20096;-67
2022/06/15 12:19:33;;;;;;;2.08;1.10;;;27.80;34.40;;;;;;5098620;28;20623;-67
2022/06/15 12:22:08;;;;;;;1.40;0.90;;;28.00;34.10;;;;;;5098333;28;20432;-67
2022/06/15 12:24:52;;;;;;;1.40;1.00;;;28.30;33.90;;;;;;5090189;28;20031;-66
2022/06/15 12:28:13;;;;;;;2.45;1.20;;;28.40;33.80;;;;;;5096602;28;20082;-66
2022/06/15 12:30:50;;;;;;;2.15;1.10;;;28.30;33.10;;;;;;5014122;28;20037;-66
2022/06/15 12:33:28;;;;;;;2.40;1.15;;;28.10;33.60;;;;;;5003868;28;20425;-66
2022/06/15 12:36:02;;;;;;;1.30;0.90;;;28.30;33.70;;;;;;5073189;28;20036;-66
2022/06/15 12:38:51;;;;;;;1.42;1.08;;;28.70;33.50;;;;;;5098799;28;20027;-66
2022/06/15 12:44:38;;;;;;;2.37;0.97;;;29.00;33.20;;;;;;5102227;28;20402;-67
2022/06/15 12:47:05;;;;;;;3.47;1.30;;;29.30;33.00;;;;;;5102224;28;20036;-66
2022/06/15 12:49:48;;;;;;;3.90;1.40;;;29.00;32.30;;;;;;5102700;28;20032;-66
2022/06/15 12:52:27;;;;;;;3.80;1.50;;;28.40;31.90;;;;;;5100832;28;20019;-67
2022/06/15 12:55:21;;;;;;;3.08;1.33;;;28.00;32.60;;;;;;5100681;28;20031;-66
2022/06/15 12:58:22;;;;;;;2.53;1.20;;;27.70;33.20;;;;;;5098307;28;20028;-66
2022/06/15 13:00:54;;;;;;;4.03;1.13;;;27.70;33.30;;;;;;5105945;28;20047;-65
2022/06/15 13:03:44;;;;;;;1.80;1.10;;;27.60;33.20;;;;;;5090792;28;20015;-66
2022/06/15 13:06:29;;;;;;;1.67;0.90;;;27.50;33.70;;;;;;5103133;28;20092;-66
2022/06/15 13:09:00;;;;;;;1.58;0.90;;;28.10;33.70;;;;;;5095167;28;20602;-65
2022/06/15 13:11:27;;;;;;;2.42;1.17;;;28.30;33.20;;;;;;5096734;28;20024;-65
2022/06/15 13:13:54;;;;;;;4.40;1.30;;;28.60;33.10;;;;;;5099137;28;20035;-66
2022/06/15 13:16:39;;;;;;;3.13;1.30;;;28.80;32.70;;;;;;5104191;28;20023;-66
2022/06/15 13:19:08;;;;;;;2.95;1.65;;;28.70;32.20;;;;;;5112574;28;20085;-66
2022/06/15 13:21:55;;;;;;;2.58;1.00;;;28.50;32.40;;;;;;5112372;28;20047;-66
2022/06/15 13:24:22;;;;;;;1.75;1.10;;;28.60;32.50;;;;;;5093547;28;20028;-66
2022/06/15 13:27:00;;;;;;;3.30;1.58;;;28.60;32.80;;;;;;5097913;28;20074;-67
2022/06/15 13:29:29;;;;;;;1.83;0.90;;;28.70;31.70;;;;;;5088711;28;20577;-66
2022/06/15 13:32:05;;;;;;;2.33;0.90;;;28.90;31.90;;;;;;5100807;28;20077;-66
2022/06/15 13:34:33;;;;;;;2.28;1.10;;;29.30;31.80;;;;;;5101489;28;20072;-67
2022/06/15 13:37:24;;;;;;;2.42;1.35;;;29.50;31.80;;;;;;5098578;28;20012;-67
2022/06/15 13:40:03;;;;;;;3.13;1.02;;;28.90;30.70;;;;;;5091676;28;20020;-67